createdAt,value
2022-12-08T00:00:43.784Z,42.75
2022-12-08T00:02:47.439Z,42.63
2022-12-08T00:05:08.408Z,50.45
2022-12-08T00:07:29.109Z,59.33
2022-12-08T00:09:38.745Z,52.75
2022-12-08T00:11:43.153Z,40.42
2022-12-08T00:13:48.495Z,35.75
2022-12-08T00:15:51.877Z,43.88
2022-12-08T00:17:55.172Z,41.85
2022-12-08T00:19:58.662Z,39.88
2022-12-08T00:22:03.306Z,45.03
2022-12-08T00:24:06.988Z,34.47
2022-12-08T00:26:10.428Z,40.00
2022-12-08T00:28:13.742Z,39.67
2022-12-08T00:30:19.627Z,38.30
2022-12-08T00:32:23.060Z,39.63
2022-12-08T00:34:26.407Z,40.33
2022-12-08T00:36:30.832Z,43.85
2022-12-08T00:38:34.116Z,35.67
2022-12-08T00:40:37.375Z,40.55
2022-12-08T00:42:39.551Z,47.58
2022-12-08T00:44:43.934Z,38.05
2022-12-08T00:46:49.478Z,40.60
2022-12-08T00:48:52.718Z,38.65
2022-12-08T00:50:56.231Z,36.97
2022-12-08T00:52:59.567Z,33.10
2022-12-08T00:55:02.857Z,41.75
2022-12-08T00:57:06.008Z,59.53
2022-12-08T00:59:10.803Z,70.32
2022-12-08T01:01:15.348Z,54.65
2022-12-08T01:03:20.116Z,117.80
2022-12-08T01:05:23.856Z,144.48
2022-12-08T01:07:27.142Z,71.22
2022-12-08T01:09:30.427Z,98.45
2022-12-08T01:11:34.639Z,34.78
2022-12-08T01:13:38.234Z,180.88
2022-12-08T01:15:41.748Z,127.85
2022-12-08T01:17:44.931Z,74.85
2022-12-08T01:19:50.419Z,61.22
2022-12-08T01:21:53.667Z,32.83
2022-12-08T01:23:57.991Z,54.70
2022-12-08T01:26:04.431Z,92.88
2022-12-08T01:28:07.619Z,115.25
2022-12-08T01:30:13.379Z,119.22
2022-12-08T01:32:16.827Z,146.38
2022-12-08T01:34:20.104Z,130.32
2022-12-08T01:36:26.579Z,92.78
2022-12-08T01:38:29.759Z,86.55
2022-12-08T01:40:33.144Z,61.13
2022-12-08T01:42:38.339Z,77.65
2022-12-08T01:45:04.931Z,104.43
2022-12-08T01:47:08.351Z,65.13
2022-12-08T01:49:15.177Z,143.50
2022-12-08T01:51:19.444Z,92.82
2022-12-08T01:53:27.740Z,130.05
2022-12-08T01:55:34.644Z,54.65
2022-12-08T01:57:42.726Z,64.30
2022-12-08T01:59:49.499Z,79.22
2022-12-08T02:01:53.493Z,55.88
2022-12-08T02:04:00.997Z,87.40
2022-12-08T02:06:04.900Z,101.47
2022-12-08T02:08:10.729Z,62.10
2022-12-08T02:10:20.496Z,98.00
2022-12-08T02:12:23.983Z,53.70
2022-12-08T02:14:27.380Z,74.03
2022-12-08T02:16:40.890Z,93.05
2022-12-08T02:19:28.997Z,36.80
2022-12-08T02:21:30.351Z,95.47
2022-12-08T02:23:41.546Z,98.40
2022-12-08T02:26:07.389Z,95.88
2022-12-08T02:28:37.924Z,81.03
2022-12-08T02:30:52.038Z,52.30
2022-12-08T02:33:33.955Z,58.70
2022-12-08T02:35:46.495Z,30.10
2022-12-08T02:37:56.047Z,31.02
2022-12-08T02:40:03.769Z,35.50
2022-12-08T02:42:13.166Z,50.50
2022-12-08T02:44:23.679Z,45.20
2022-12-08T02:46:33.199Z,42.88
2022-12-08T02:48:36.916Z,42.65
2022-12-08T02:50:41.742Z,47.05
2022-12-08T02:52:46.292Z,31.13
2022-12-08T02:54:58.243Z,39.55
2022-12-08T02:57:26.121Z,26.85
2022-12-08T02:59:43.639Z,44.10
2022-12-08T03:02:00.060Z,65.50
2022-12-08T03:04:09.986Z,50.63
2022-12-08T03:06:26.997Z,69.45
2022-12-08T03:08:38.103Z,56.05
2022-12-08T03:10:47.707Z,46.47
2022-12-08T03:12:53.356Z,36.63
2022-12-08T03:15:00.671Z,55.15
2022-12-08T03:17:05.924Z,51.30
2022-12-08T03:19:15.677Z,37.13
2022-12-08T03:21:22.280Z,101.20
2022-12-08T03:23:26.698Z,46.10
2022-12-08T03:25:36.846Z,53.50
2022-12-08T03:27:40.407Z,66.80
2022-12-08T03:29:43.758Z,59.53
2022-12-08T03:31:55.218Z,39.53
2022-12-08T03:34:00.815Z,39.63
2022-12-08T03:36:07.328Z,42.45
2022-12-08T03:38:14.432Z,40.72
2022-12-08T03:40:21.002Z,34.42
2022-12-08T03:42:24.519Z,35.78
2022-12-08T03:44:27.698Z,45.60
2022-12-08T03:46:32.349Z,52.17
2022-12-08T03:48:35.591Z,51.22
2022-12-08T03:50:38.879Z,79.60
2022-12-08T03:52:42.150Z,61.92
2022-12-08T03:54:46.796Z,77.15
2022-12-08T03:56:50.279Z,63.30
2022-12-08T03:58:54.199Z,103.57
2022-12-08T04:00:58.012Z,62.22
2022-12-08T04:03:01.396Z,56.17
2022-12-08T04:05:05.388Z,61.72
2022-12-08T04:07:08.717Z,84.05
2022-12-08T04:09:11.949Z,52.08
2022-12-08T04:11:16.688Z,41.20
2022-12-08T04:13:20.183Z,75.22
2022-12-08T04:15:23.573Z,80.28
2022-12-08T04:17:26.971Z,68.35
2022-12-08T04:19:30.749Z,105.20
2022-12-08T04:21:34.347Z,47.20
2022-12-08T04:23:37.654Z,89.75
2022-12-08T04:25:41.354Z,74.43
2022-12-08T04:27:46.128Z,148.98
2022-12-08T04:29:50.713Z,92.40
2022-12-08T04:31:54.216Z,91.55
2022-12-08T04:33:57.494Z,187.32
2022-12-08T04:36:00.871Z,83.38
2022-12-08T04:38:04.258Z,121.35
2022-12-08T04:40:08.989Z,116.90
2022-12-08T04:42:12.279Z,92.25
2022-12-08T04:44:16.998Z,182.15
2022-12-08T04:46:20.354Z,57.60
2022-12-08T04:48:23.889Z,75.03
2022-12-08T04:50:27.687Z,237.90
2022-12-08T04:52:31.182Z,153.43
2022-12-08T04:54:34.801Z,216.70
2022-12-08T04:56:38.581Z,68.75
2022-12-08T04:58:41.999Z,97.60
2022-12-08T05:00:47.468Z,66.53
2022-12-08T05:02:50.865Z,78.93
2022-12-08T05:04:54.504Z,46.88
2022-12-08T05:06:57.695Z,71.75
2022-12-08T05:09:01.000Z,152.73
2022-12-08T05:11:05.084Z,115.65
2022-12-08T05:13:08.377Z,172.93
2022-12-08T05:15:11.976Z,122.78
2022-12-08T05:17:16.694Z,352.77
2022-12-08T05:19:19.932Z,86.15
2022-12-08T05:21:23.172Z,138.93
2022-12-08T05:23:27.301Z,94.32
2022-12-08T05:25:30.685Z,144.70
2022-12-08T05:27:34.211Z,146.77
2022-12-08T05:29:37.458Z,205.15
2022-12-08T05:31:40.794Z,136.00
2022-12-08T05:33:46.190Z,109.93
2022-12-08T05:35:49.478Z,94.30
2022-12-08T05:37:54.058Z,146.85
2022-12-08T05:39:57.430Z,84.65
2022-12-08T05:42:00.781Z,50.80
2022-12-08T05:44:04.022Z,174.20
2022-12-08T05:46:08.380Z,124.95
2022-12-08T05:48:11.876Z,82.78
2022-12-08T05:50:16.702Z,78.22
2022-12-08T05:52:19.948Z,74.95
2022-12-08T05:54:24.077Z,86.30
2022-12-08T05:56:27.864Z,71.22
2022-12-08T05:58:31.354Z,115.53
2022-12-08T06:00:35.204Z,142.90
2022-12-08T06:02:38.565Z,90.72
2022-12-08T06:04:42.295Z,106.55
2022-12-08T06:06:47.030Z,124.43
2022-12-08T06:08:50.830Z,91.93
2022-12-08T06:10:54.479Z,200.45
2022-12-08T06:12:58.016Z,125.35
2022-12-08T06:15:01.328Z,36.65
2022-12-08T06:17:04.845Z,55.55
2022-12-08T06:19:08.321Z,128.38
2022-12-08T06:21:13.787Z,80.90
2022-12-08T06:23:18.664Z,156.35
2022-12-08T06:25:22.488Z,141.02
2022-12-08T06:27:25.977Z,194.18
2022-12-08T06:29:29.464Z,95.25
2022-12-08T06:31:32.834Z,184.07
2022-12-08T06:33:37.778Z,118.95
2022-12-08T06:35:41.060Z,146.75
2022-12-08T06:37:44.256Z,148.15
2022-12-08T06:39:52.051Z,83.90
2022-12-08T06:42:12.951Z,89.40
2022-12-08T06:44:16.243Z,121.53
2022-12-08T06:46:21.053Z,138.07
2022-12-08T06:48:24.706Z,185.68
2022-12-08T06:50:28.770Z,112.18
2022-12-08T06:52:32.008Z,183.32
2022-12-08T06:54:35.251Z,58.80
2022-12-08T06:56:39.974Z,81.82
2022-12-08T06:58:49.035Z,166.60
2022-12-08T07:00:55.932Z,96.68
2022-12-08T07:02:59.354Z,120.40
2022-12-08T07:05:02.655Z,119.32
2022-12-08T07:07:05.918Z,97.20
2022-12-08T07:09:09.470Z,164.10
2022-12-08T07:11:18.207Z,152.63
2022-12-08T07:13:25.818Z,158.68
2022-12-08T07:15:29.147Z,113.00
2022-12-08T07:17:32.436Z,35.80
2022-12-08T07:19:36.136Z,119.22
2022-12-08T07:21:39.739Z,171.43
2022-12-08T07:23:43.537Z,44.10
2022-12-08T07:25:46.824Z,180.38
2022-12-08T07:27:51.807Z,70.80
2022-12-08T07:29:56.753Z,96.82
2022-12-08T07:32:00.174Z,74.00
2022-12-08T07:34:03.378Z,147.25
2022-12-08T07:36:07.693Z,143.90
2022-12-08T07:38:12.092Z,54.22
2022-12-08T07:40:16.510Z,98.63
2022-12-08T07:42:21.879Z,145.63
2022-12-08T07:44:25.752Z,49.22
2022-12-08T07:46:30.442Z,127.18
2022-12-08T07:48:33.878Z,87.80
2022-12-08T07:50:37.665Z,79.80
2022-12-08T07:52:41.061Z,119.18
2022-12-08T07:54:44.355Z,79.68
2022-12-08T07:56:47.748Z,143.18
2022-12-08T07:58:51.095Z,148.90
2022-12-08T08:00:54.744Z,112.72
2022-12-08T08:03:00.174Z,64.63
2022-12-08T08:05:06.422Z,79.25
2022-12-08T08:07:09.824Z,87.63
2022-12-08T08:09:13.078Z,76.68
2022-12-08T08:11:20.915Z,43.83
2022-12-08T08:13:24.919Z,96.70
2022-12-08T08:15:28.829Z,45.10
2022-12-08T08:17:32.344Z,63.42
2022-12-08T08:19:37.051Z,43.20
2022-12-08T08:21:47.419Z,39.67
2022-12-08T08:23:50.905Z,60.40
2022-12-08T08:25:54.182Z,45.38
2022-12-08T08:27:57.600Z,44.63
2022-12-08T08:30:01.037Z,46.60
2022-12-08T08:32:05.298Z,44.72
2022-12-08T08:34:09.239Z,39.90
2022-12-08T08:36:14.416Z,53.05
2022-12-08T08:38:18.219Z,45.55
2022-12-08T08:40:21.463Z,45.13
2022-12-08T08:42:24.948Z,44.22
2022-12-08T08:44:30.398Z,39.85
2022-12-08T08:46:33.953Z,40.55
2022-12-08T08:48:37.654Z,45.45
2022-12-08T08:50:40.927Z,41.83
2022-12-08T08:52:45.808Z,40.55
2022-12-08T08:54:49.152Z,41.13
2022-12-08T08:56:52.706Z,43.85
2022-12-08T08:58:56.100Z,83.53
2022-12-08T09:00:59.764Z,76.57
2022-12-08T09:03:05.789Z,54.25
2022-12-08T09:05:10.086Z,55.28
2022-12-08T09:07:13.875Z,75.07
2022-12-08T09:09:18.729Z,81.22
2022-12-08T09:11:23.781Z,52.22
2022-12-08T09:13:27.310Z,57.25
2022-12-08T09:15:31.159Z,57.65
2022-12-08T09:17:34.385Z,59.50
2022-12-08T09:19:37.960Z,56.78
2022-12-08T09:21:41.389Z,38.65
2022-12-08T09:23:45.096Z,45.70
2022-12-08T09:25:49.837Z,41.90
2022-12-08T09:27:53.357Z,39.42
2022-12-08T09:29:56.721Z,39.75
2022-12-08T09:32:00.175Z,48.55
2022-12-08T09:34:03.669Z,38.53
2022-12-08T09:36:07.582Z,41.08
2022-12-08T09:38:10.850Z,44.40
2022-12-08T09:40:18.790Z,42.85
2022-12-08T09:42:35.262Z,39.80
2022-12-08T09:44:50.497Z,46.15
2022-12-08T09:46:55.295Z,42.38
2022-12-08T09:49:00.144Z,39.70
2022-12-08T09:51:06.125Z,38.35
2022-12-08T09:53:17.045Z,41.17
2022-12-08T09:55:26.508Z,48.72
2022-12-08T09:57:33.953Z,34.80
2022-12-08T09:59:41.616Z,39.30
2022-12-08T10:01:45.233Z,42.47
2022-12-08T10:03:49.028Z,38.13
2022-12-08T10:06:01.468Z,42.90
2022-12-08T10:08:12.997Z,41.03
2022-12-08T10:10:27.579Z,37.28
2022-12-08T10:12:44.358Z,42.38
2022-12-08T10:14:53.609Z,43.15
2022-12-08T10:17:02.366Z,39.75
2022-12-08T10:19:15.440Z,46.10
2022-12-08T10:21:25.550Z,38.42
2022-12-08T10:23:35.495Z,41.50
2022-12-08T10:25:45.812Z,41.78
2022-12-08T10:27:55.392Z,35.22
2022-12-08T10:29:58.780Z,39.80
2022-12-08T10:32:02.563Z,45.67
2022-12-08T10:34:17.439Z,33.38
2022-12-08T10:36:21.040Z,33.92
2022-12-08T10:38:27.935Z,31.95
2022-12-08T10:40:40.711Z,38.90
2022-12-08T10:42:49.656Z,35.05
2022-12-08T10:45:03.280Z,35.97
2022-12-08T10:47:13.747Z,38.58
2022-12-08T10:49:28.192Z,39.60
2022-12-08T10:51:39.418Z,48.88
2022-12-08T10:53:47.803Z,36.40
2022-12-08T10:56:06.650Z,35.28
2022-12-08T10:58:26.125Z,34.55
2022-12-08T11:00:34.025Z,42.25
2022-12-08T11:02:37.419Z,32.80
2022-12-08T11:04:41.024Z,37.47
2022-12-08T11:06:45.049Z,36.72
2022-12-08T11:08:51.678Z,43.22
2022-12-08T11:10:55.119Z,37.85
2022-12-08T11:13:01.965Z,42.50
2022-12-08T11:15:06.039Z,40.03
2022-12-08T11:17:14.159Z,48.92
2022-12-08T11:19:19.700Z,46.25
2022-12-08T11:21:35.999Z,41.70
2022-12-08T11:23:39.401Z,43.88
2022-12-08T11:25:42.838Z,38.25
2022-12-08T11:27:49.655Z,44.95
2022-12-08T11:29:53.046Z,45.90
2022-12-08T11:32:01.228Z,32.25
2022-12-08T11:34:07.975Z,41.08
2022-12-08T11:36:15.265Z,43.10
2022-12-08T11:38:22.879Z,40.30
2022-12-08T11:40:32.788Z,48.72
2022-12-08T11:42:45.648Z,34.78
2022-12-08T11:44:52.523Z,39.50
2022-12-08T11:46:59.943Z,39.55
2022-12-08T11:49:07.327Z,42.30
2022-12-08T11:51:14.989Z,45.22
2022-12-08T11:53:26.061Z,39.53
2022-12-08T11:55:37.536Z,34.63
2022-12-08T11:57:42.449Z,41.72
2022-12-08T11:59:49.854Z,40.38
2022-12-08T12:01:53.510Z,31.80
2022-12-08T12:04:03.396Z,44.35
2022-12-08T12:09:01.072Z,35.10
2022-12-08T12:11:11.372Z,30.95
2022-12-08T12:13:50.927Z,42.28
2022-12-08T12:16:30.410Z,43.55
2022-12-08T12:18:36.879Z,41.88
2022-12-08T12:20:47.569Z,34.38
2022-12-08T12:22:58.144Z,35.42
2022-12-08T12:25:02.175Z,39.63
2022-12-08T12:27:16.474Z,33.33
2022-12-08T12:29:23.781Z,36.10
2022-12-08T12:31:30.435Z,35.45
2022-12-08T12:33:34.568Z,37.78
2022-12-08T12:35:42.607Z,35.40
2022-12-08T12:37:45.910Z,48.55
2022-12-08T12:39:59.167Z,42.05
2022-12-08T12:42:04.769Z,42.75
2022-12-08T12:44:41.367Z,35.55
2022-12-08T12:46:56.507Z,39.50
2022-12-08T12:49:52.542Z,42.83
2022-12-08T12:51:57.358Z,38.72
2022-12-08T12:54:21.863Z,39.15
2022-12-08T12:57:15.780Z,43.53
2022-12-08T12:59:47.833Z,39.10
2022-12-08T13:01:56.945Z,43.40
2022-12-08T13:04:07.706Z,41.35
2022-12-08T13:06:14.911Z,46.13
2022-12-08T13:08:23.327Z,43.85
2022-12-08T13:10:31.083Z,50.75
2022-12-08T13:12:34.472Z,42.45
2022-12-08T13:14:39.400Z,40.22
2022-12-08T13:16:43.117Z,38.83
2022-12-08T13:18:50.234Z,36.00
2022-12-08T13:20:56.417Z,36.83
2022-12-08T13:23:12.168Z,34.33
2022-12-08T13:25:48.079Z,34.28
2022-12-08T13:27:54.355Z,36.47
2022-12-08T13:30:30.784Z,24.60
2022-12-08T13:35:20.392Z,26.58
2022-12-08T13:37:30.093Z,31.48
2022-12-08T13:39:42.541Z,33.25
2022-12-08T13:41:54.930Z,31.77
2022-12-08T13:45:03.487Z,35.08
2022-12-08T13:55:03.643Z,32.53
2022-12-08T13:58:51.569Z,45.35
2022-12-08T14:00:58.629Z,41.08
2022-12-08T14:03:03.302Z,44.25
2022-12-08T14:05:35.269Z,28.48
2022-12-08T14:07:33.792Z,34.25
2022-12-08T14:09:38.926Z,34.90
2022-12-08T14:11:45.185Z,36.97
2022-12-08T14:13:51.620Z,32.17
2022-12-08T14:15:56.462Z,39.20
2022-12-08T14:17:59.810Z,34.85
2022-12-08T14:20:06.622Z,37.72
2022-12-08T14:22:13.646Z,33.58
2022-12-08T14:24:16.893Z,35.83
2022-12-08T14:26:20.059Z,35.53
2022-12-08T14:28:23.386Z,29.83
2022-12-08T14:30:30.592Z,26.67
2022-12-08T14:32:39.584Z,31.17
2022-12-08T14:34:43.916Z,28.13
2022-12-08T14:36:47.303Z,34.60
2022-12-08T14:38:53.022Z,31.33
2022-12-08T14:41:04.343Z,34.10
2022-12-08T14:43:16.179Z,34.55
2022-12-08T14:45:20.385Z,34.80
2022-12-08T14:47:23.714Z,34.72
2022-12-08T14:49:35.971Z,35.70
2022-12-08T14:51:41.577Z,36.30
2022-12-08T14:53:48.582Z,34.50
2022-12-08T14:55:52.293Z,34.30
2022-12-08T14:57:55.525Z,33.70
2022-12-08T14:59:59.331Z,32.28
2022-12-08T15:02:22.893Z,36.35
2022-12-08T15:04:29.540Z,36.80
2022-12-08T15:06:34.544Z,32.25
2022-12-08T15:08:53.918Z,29.15
2022-12-08T15:11:27.969Z,31.08
2022-12-08T15:13:31.773Z,33.05
2022-12-08T15:15:48.463Z,33.70
2022-12-08T15:17:58.994Z,34.88
2022-12-08T15:20:04.724Z,33.38
2022-12-08T15:22:19.000Z,30.40
2022-12-08T15:24:25.903Z,35.28
2022-12-08T15:26:29.714Z,34.22
2022-12-08T15:28:33.316Z,35.05
2022-12-08T15:30:36.539Z,32.58
2022-12-08T15:32:40.511Z,35.67
2022-12-08T15:34:44.053Z,35.65
2022-12-08T15:36:47.969Z,35.10
2022-12-08T15:38:52.889Z,31.55
2022-12-08T15:40:58.736Z,36.65
2022-12-08T15:43:02.279Z,34.83
2022-12-08T15:45:06.837Z,29.77
2022-12-08T15:47:17.943Z,32.90
2022-12-08T15:49:23.044Z,31.85
2022-12-08T15:51:26.359Z,34.90
2022-12-08T15:53:29.697Z,32.22
2022-12-08T15:55:38.755Z,36.50
2022-12-08T15:58:31.189Z,45.28
2022-12-08T16:00:50.439Z,39.42
2022-12-08T16:03:13.456Z,32.63
2022-12-08T16:07:31.672Z,34.90
2022-12-08T16:09:39.423Z,44.05
2022-12-08T16:12:07.001Z,30.35
2022-12-08T16:15:01.328Z,41.15
2022-12-08T16:16:34.274Z,53.78
2022-12-08T16:18:40.213Z,39.13
2022-12-08T16:21:07.587Z,39.70
2022-12-08T16:23:19.692Z,34.53
2022-12-08T16:25:52.878Z,34.08
2022-12-08T16:28:05.398Z,34.83
2022-12-08T16:30:19.176Z,26.30
2022-12-08T16:32:22.750Z,45.35
2022-12-08T16:34:26.190Z,32.50
2022-12-08T16:36:29.412Z,32.03
2022-12-08T16:38:33.197Z,30.98
2022-12-08T16:40:57.794Z,35.42
2022-12-08T16:43:01.595Z,36.92
2022-12-08T16:45:06.793Z,35.72
2022-12-08T16:47:10.714Z,40.33
2022-12-08T16:49:15.806Z,29.70
2022-12-08T16:51:26.650Z,35.80
2022-12-08T16:53:30.423Z,31.05
2022-12-08T16:55:35.586Z,35.45
2022-12-08T16:57:39.517Z,29.77
2022-12-08T16:59:44.286Z,30.40
2022-12-08T17:01:47.690Z,36.72
2022-12-08T17:04:14.223Z,32.53
2022-12-08T17:06:17.924Z,37.58
2022-12-08T17:08:21.438Z,31.55
2022-12-08T17:10:27.152Z,29.88
2022-12-08T17:12:30.421Z,40.90
2022-12-08T17:14:36.249Z,35.63
2022-12-08T17:16:41.151Z,34.17
2022-12-08T17:18:44.975Z,32.80
2022-12-08T17:20:48.370Z,31.85
2022-12-08T17:22:51.912Z,31.73
2022-12-08T17:24:55.288Z,37.53
2022-12-08T17:27:04.006Z,31.08
2022-12-08T17:29:07.408Z,32.22
2022-12-08T17:31:12.447Z,28.83
2022-12-08T17:33:21.041Z,25.88
2022-12-08T17:35:28.027Z,32.67
2022-12-08T17:37:31.281Z,25.88
2022-12-08T17:39:34.694Z,27.50
2022-12-08T17:41:38.297Z,29.10
2022-12-08T17:43:41.703Z,25.73
2022-12-08T17:45:47.573Z,28.40
2022-12-08T17:47:51.022Z,29.80
2022-12-08T17:49:56.846Z,25.60
2022-12-08T17:52:02.673Z,26.77
2022-12-08T17:54:06.740Z,33.50
2022-12-08T17:56:16.556Z,32.58
2022-12-08T17:58:19.974Z,25.20
2022-12-08T18:00:23.658Z,21.98
2022-12-08T18:02:26.987Z,23.83
2022-12-08T18:04:30.611Z,25.52
2022-12-08T18:06:35.906Z,25.88
2022-12-08T18:08:39.844Z,24.77
2022-12-08T18:10:43.184Z,23.85
2022-12-08T18:12:47.187Z,31.52
2022-12-08T18:14:52.031Z,26.05
2022-12-08T18:16:55.565Z,23.50
2022-12-08T18:18:59.007Z,22.13
2022-12-08T18:21:02.665Z,23.42
2022-12-08T18:23:07.324Z,28.20
2022-12-08T18:25:11.739Z,24.63
2022-12-08T18:27:15.234Z,26.67
2022-12-08T18:29:18.743Z,26.90
2022-12-08T18:31:24.043Z,30.08
2022-12-08T18:33:27.779Z,22.35
2022-12-08T18:35:31.387Z,23.60
2022-12-08T18:37:35.779Z,22.35
2022-12-08T18:39:40.397Z,25.08
2022-12-08T18:41:43.684Z,24.67
2022-12-08T18:43:47.439Z,19.75
2022-12-08T18:45:50.827Z,21.80
2022-12-08T18:47:54.713Z,20.95
2022-12-08T18:49:58.178Z,23.92
2022-12-08T18:52:01.466Z,25.63
2022-12-08T18:54:05.214Z,23.75
2022-12-08T18:56:10.546Z,23.40
2022-12-08T18:58:14.836Z,23.70
2022-12-08T19:00:20.567Z,23.15
2022-12-08T19:02:24.161Z,21.77
2022-12-08T19:04:29.039Z,24.13
2022-12-08T19:06:33.301Z,19.73
2022-12-08T19:08:36.744Z,19.52
2022-12-08T19:10:40.241Z,22.33
2022-12-08T19:12:44.854Z,25.50
2022-12-08T19:14:48.216Z,24.38
2022-12-08T19:16:51.610Z,20.23
2022-12-08T19:18:55.190Z,23.95
2022-12-08T19:20:59.655Z,16.92
2022-12-08T19:23:02.971Z,22.00
2022-12-08T19:25:07.054Z,23.58
2022-12-08T19:27:10.257Z,20.75
2022-12-08T19:29:14.833Z,20.25
2022-12-08T19:31:18.375Z,21.52
2022-12-08T19:33:21.813Z,22.17
2022-12-08T19:35:24.958Z,26.48
2022-12-08T19:37:28.781Z,26.60
2022-12-08T19:39:49.609Z,23.90
2022-12-08T19:42:10.527Z,25.85
2022-12-08T19:44:39.300Z,22.83
2022-12-08T19:46:42.974Z,22.05
2022-12-08T19:48:46.685Z,25.75
2022-12-08T19:50:50.085Z,26.85
2022-12-08T19:52:54.133Z,24.30
2022-12-08T19:54:57.990Z,21.02
2022-12-08T19:57:01.326Z,27.13
2022-12-08T19:59:05.152Z,24.77
2022-12-08T20:01:10.088Z,24.80
2022-12-08T20:03:16.754Z,24.92
2022-12-08T20:05:20.702Z,19.67
2022-12-08T20:07:24.079Z,19.67
2022-12-08T20:09:27.892Z,19.85
2022-12-08T20:11:31.482Z,22.80
2022-12-08T20:13:51.364Z,24.60
2022-12-08T20:15:54.880Z,20.10
2022-12-08T20:17:59.601Z,21.00
2022-12-08T20:20:07.221Z,21.02
2022-12-08T20:25:27.735Z,20.73
2022-12-08T20:27:30.975Z,18.45
2022-12-08T20:29:34.883Z,22.77
2022-12-08T20:31:38.354Z,20.00
2022-12-08T20:33:43.410Z,22.73
2022-12-08T20:35:48.155Z,20.27
2022-12-08T20:37:51.529Z,23.10
2022-12-08T20:39:55.570Z,22.38
2022-12-08T20:42:00.193Z,24.23
2022-12-08T20:44:03.419Z,23.75
2022-12-08T20:46:10.412Z,21.65
2022-12-08T20:48:14.089Z,21.95
2022-12-08T20:50:19.283Z,31.02
2022-12-08T20:52:22.761Z,20.88
2022-12-08T20:54:26.146Z,21.92
2022-12-08T20:56:31.337Z,20.20
2022-12-08T20:58:35.031Z,21.30
2022-12-08T21:00:39.133Z,23.27
2022-12-08T21:02:48.525Z,22.58
2022-12-08T21:04:55.803Z,18.48
2022-12-08T21:07:00.719Z,25.08
2022-12-08T21:09:04.235Z,21.08
2022-12-08T21:11:08.826Z,22.30
2022-12-08T21:13:12.268Z,19.83
2022-12-08T21:15:16.167Z,22.25
2022-12-08T21:17:20.053Z,19.70
2022-12-08T21:19:24.136Z,21.30
2022-12-08T21:21:27.805Z,23.45
2022-12-08T21:23:32.595Z,20.20
2022-12-08T21:25:36.179Z,24.08
2022-12-08T21:27:40.399Z,20.52
2022-12-08T21:29:43.752Z,21.92
2022-12-08T21:31:47.479Z,20.20
2022-12-08T21:33:51.086Z,19.98
2022-12-08T21:36:04.064Z,22.73
2022-12-08T21:38:08.058Z,21.13
2022-12-08T21:40:14.112Z,19.08
2022-12-08T21:42:35.315Z,22.67
2022-12-08T21:44:38.972Z,19.80
2022-12-08T21:46:42.791Z,16.48
2022-12-08T21:48:46.731Z,21.75
2022-12-08T21:50:50.314Z,19.50
2022-12-08T21:52:53.577Z,25.90
2022-12-08T21:54:57.104Z,21.20
2022-12-08T21:57:01.772Z,26.70
2022-12-08T21:59:05.236Z,24.92
2022-12-08T22:01:09.423Z,18.73
2022-12-08T22:03:15.672Z,19.38
2022-12-08T22:05:19.319Z,20.08
2022-12-08T22:07:23.120Z,21.88
2022-12-08T22:09:26.652Z,24.23
2022-12-08T22:11:30.024Z,19.83
2022-12-08T22:13:36.760Z,21.02
2022-12-08T22:15:40.280Z,21.55
2022-12-08T22:17:44.770Z,21.48
2022-12-08T22:19:48.544Z,22.67
2022-12-08T22:21:51.829Z,23.65
2022-12-08T22:23:55.050Z,23.83
2022-12-08T22:25:59.267Z,22.30
2022-12-08T22:28:02.696Z,22.33
2022-12-08T22:30:09.222Z,23.75
2022-12-08T22:32:12.779Z,22.33
2022-12-08T22:34:16.081Z,24.52
2022-12-08T22:36:21.762Z,22.23
2022-12-08T22:38:25.318Z,18.38
2022-12-08T22:40:28.542Z,26.40
2022-12-08T22:42:31.750Z,20.52
2022-12-08T22:44:35.039Z,22.20
2022-12-08T22:46:40.026Z,27.70
2022-12-08T22:48:43.356Z,25.00
2022-12-08T22:50:46.769Z,21.95
2022-12-08T22:52:50.179Z,23.10
2022-12-08T22:54:53.903Z,30.23
2022-12-08T22:56:57.130Z,24.95
2022-12-08T22:59:00.636Z,25.98
2022-12-08T23:01:04.261Z,23.67
2022-12-08T23:03:09.011Z,23.02
2022-12-08T23:05:13.116Z,22.58
2022-12-08T23:07:16.513Z,20.98
2022-12-08T23:09:20.166Z,23.80
2022-12-08T23:11:25.789Z,25.48
2022-12-08T23:13:29.380Z,19.95
2022-12-08T23:15:33.527Z,25.98
2022-12-08T23:17:37.189Z,23.00
2022-12-08T23:19:42.314Z,23.75
2022-12-08T23:21:45.932Z,28.83
2022-12-08T23:23:49.644Z,28.73
2022-12-08T23:25:52.896Z,26.30
2022-12-08T23:27:56.428Z,25.77
2022-12-08T23:30:00.391Z,21.92
2022-12-08T23:32:03.959Z,28.35
2022-12-08T23:34:07.370Z,26.65
2022-12-08T23:36:13.401Z,27.05
2022-12-08T23:38:16.889Z,21.13
2022-12-08T23:40:20.221Z,24.42
2022-12-08T23:42:23.480Z,23.42
2022-12-08T23:44:26.952Z,28.48
2022-12-08T23:46:30.437Z,27.30
2022-12-08T23:48:34.978Z,31.80
2022-12-08T23:50:38.611Z,30.92
2022-12-08T23:52:43.571Z,24.92
2022-12-08T23:54:47.407Z,22.13
2022-12-08T23:56:50.715Z,24.48
2022-12-08T23:58:54.042Z,25.90
